createdAt,value
2022-10-17T00:00:08.156Z,72.43
2022-10-17T00:02:35.520Z,74.34
2022-10-17T00:05:03.019Z,74.06
2022-10-17T00:07:31.114Z,73.75
2022-10-17T00:09:58.808Z,73.42
2022-10-17T00:12:26.292Z,74.01
2022-10-17T00:14:53.653Z,73.75
2022-10-17T00:17:21.258Z,73.76
2022-10-17T00:19:48.867Z,74.12
2022-10-17T00:22:16.325Z,73.93
2022-10-17T00:24:43.699Z,73.53
2022-10-17T00:27:11.048Z,74.62
2022-10-17T00:29:38.787Z,74.52
2022-10-17T00:32:06.378Z,75.36
2022-10-17T00:34:34.110Z,77.06
2022-10-17T00:37:01.463Z,76.65
2022-10-17T00:39:28.944Z,76.43
2022-10-17T00:41:56.306Z,75.94
2022-10-17T00:44:29.569Z,75.49
2022-10-17T00:46:58.351Z,75.45
2022-10-17T00:49:29.309Z,75.73
2022-10-17T00:52:00.631Z,75.78
2022-10-17T00:54:32.550Z,75.62
2022-10-17T00:57:00.645Z,75.70
2022-10-17T00:59:28.834Z,74.96
2022-10-17T01:02:06.996Z,74.81
2022-10-17T01:04:38.314Z,75.14
2022-10-17T01:07:05.683Z,75.53
2022-10-17T01:09:33.283Z,75.30
2022-10-17T01:12:19.008Z,77.75
2022-10-17T01:14:58.610Z,77.18
2022-10-17T01:17:40.370Z,77.07
2022-10-17T01:20:49.857Z,77.98
2022-10-17T01:23:42.044Z,77.14
2022-10-17T01:26:54.406Z,77.02
2022-10-17T01:29:43.619Z,77.14
2022-10-17T01:32:17.096Z,77.38
2022-10-17T01:34:56.094Z,78.60
2022-10-17T01:37:33.682Z,78.04
2022-10-17T01:40:21.919Z,78.39
2022-10-17T01:42:57.301Z,77.39
2022-10-17T01:45:24.913Z,77.03
2022-10-17T01:47:53.221Z,77.03
2022-10-17T01:50:24.909Z,77.23
2022-10-17T01:52:56.827Z,77.23
2022-10-17T01:55:28.871Z,77.27
2022-10-17T01:58:04.396Z,77.38
2022-10-17T02:00:31.637Z,77.83
2022-10-17T02:03:10.877Z,77.79
2022-10-17T02:05:41.369Z,77.84
2022-10-17T02:08:09.328Z,77.86
2022-10-17T02:10:42.314Z,77.68
2022-10-17T02:13:20.480Z,77.48
2022-10-17T02:15:55.638Z,78.17
2022-10-17T02:18:36.207Z,80.63
2022-10-17T02:21:08.848Z,82.39
2022-10-17T02:23:43.286Z,83.32
2022-10-17T02:26:24.086Z,83.21
2022-10-17T02:28:57.642Z,82.20
2022-10-17T02:31:36.457Z,81.80
2022-10-17T02:34:10.174Z,81.82
2022-10-17T02:36:42.217Z,82.61
2022-10-17T02:39:10.176Z,82.61
2022-10-17T02:41:39.970Z,82.45
2022-10-17T02:44:08.981Z,82.12
2022-10-17T02:46:37.781Z,82.35
2022-10-17T02:49:14.144Z,83.32
2022-10-17T02:51:57.833Z,82.58
2022-10-17T02:54:38.389Z,82.79
2022-10-17T02:57:43.453Z,83.70
2022-10-17T03:00:13.719Z,83.59
2022-10-17T03:02:42.594Z,83.56
2022-10-17T03:05:11.510Z,85.13
2022-10-17T03:07:39.111Z,84.95
2022-10-17T03:11:09.840Z,83.99
2022-10-17T03:13:39.722Z,83.76
2022-10-17T03:16:07.812Z,85.58
2022-10-17T03:18:35.287Z,86.17
2022-10-17T03:21:02.651Z,86.73
2022-10-17T03:23:30.125Z,86.69
2022-10-17T03:25:57.488Z,87.84
2022-10-17T03:28:24.990Z,88.81
2022-10-17T03:30:52.459Z,89.48
2022-10-17T03:33:19.946Z,89.79
2022-10-17T03:35:47.563Z,89.96
2022-10-17T03:38:15.143Z,89.93
2022-10-17T03:44:49.828Z,90.33
2022-10-17T03:47:17.301Z,90.04
2022-10-17T03:49:45.034Z,91.20
2022-10-17T03:52:13.227Z,91.87
2022-10-17T03:54:41.200Z,92.79
2022-10-17T03:57:08.550Z,92.28
2022-10-17T03:59:36.032Z,92.74
2022-10-17T04:02:03.513Z,92.99
2022-10-17T04:04:30.929Z,92.96
2022-10-17T04:06:58.356Z,92.97
2022-10-17T04:09:25.959Z,91.98
2022-10-17T04:11:53.333Z,91.74
2022-10-17T04:14:20.802Z,92.55
2022-10-17T04:17:50.926Z,93.53
2022-10-17T04:20:18.431Z,94.85
2022-10-17T04:22:46.008Z,95.74
2022-10-17T04:25:13.851Z,96.57
2022-10-17T04:27:41.247Z,95.91
2022-10-17T04:30:08.813Z,96.66
2022-10-17T04:32:38.342Z,96.13
2022-10-17T04:35:06.172Z,96.94
2022-10-17T04:37:33.649Z,96.99
2022-10-17T04:40:01.042Z,97.35
2022-10-17T04:42:29.633Z,97.33
2022-10-17T04:44:57.420Z,97.43
2022-10-17T04:47:25.023Z,96.38
2022-10-17T04:49:52.623Z,96.80
2022-10-17T04:52:20.229Z,95.57
2022-10-17T04:54:47.709Z,95.52
2022-10-17T04:57:15.310Z,95.70
2022-10-17T04:59:42.793Z,94.48
2022-10-17T05:02:10.267Z,93.58
2022-10-17T05:04:37.771Z,93.29
2022-10-17T05:07:05.350Z,92.88
2022-10-17T05:09:32.722Z,94.05
2022-10-17T05:12:00.086Z,94.40
2022-10-17T05:14:27.680Z,93.85
2022-10-17T05:16:56.887Z,94.42
2022-10-17T05:19:24.567Z,95.87
2022-10-17T05:22:38.340Z,96.43
2022-10-17T05:25:09.327Z,97.82
2022-10-17T05:27:36.817Z,98.46
2022-10-17T05:30:05.012Z,99.70
2022-10-17T05:32:32.643Z,100.00
2022-10-17T05:35:00.214Z,100.00
2022-10-17T05:37:34.142Z,100.00
2022-10-17T05:40:01.817Z,100.00
2022-10-17T05:42:29.955Z,100.00
2022-10-17T05:44:57.608Z,100.00
2022-10-17T05:47:29.086Z,100.00
2022-10-17T05:49:56.643Z,100.00
2022-10-17T05:52:24.357Z,100.00
2022-10-17T05:54:56.084Z,100.00
2022-10-17T05:57:33.709Z,100.00
2022-10-17T06:00:01.078Z,100.00
2022-10-17T06:02:28.942Z,100.00
2022-10-17T06:04:56.627Z,100.00
2022-10-17T06:07:24.365Z,100.00
2022-10-17T06:09:51.851Z,100.00
2022-10-17T06:12:19.433Z,100.00
2022-10-17T06:14:46.915Z,100.00
2022-10-17T06:17:16.375Z,100.00
2022-10-17T06:19:45.204Z,100.00
2022-10-17T06:22:12.958Z,100.00
2022-10-17T06:24:42.733Z,100.00
2022-10-17T06:27:11.949Z,100.00
2022-10-17T06:29:39.988Z,100.00
2022-10-17T06:32:09.918Z,100.00
2022-10-17T06:34:40.455Z,100.00
2022-10-17T06:37:07.935Z,100.00
2022-10-17T06:39:36.016Z,100.00
2022-10-17T06:42:04.369Z,100.00
2022-10-17T06:44:32.121Z,100.00
2022-10-17T06:47:00.508Z,100.00
2022-10-17T06:49:27.991Z,100.00
2022-10-17T06:51:55.945Z,100.00
2022-10-17T06:54:23.425Z,100.00
2022-10-17T06:56:50.788Z,100.00
2022-10-17T06:59:18.267Z,100.00
2022-10-17T07:01:47.134Z,100.00
2022-10-17T07:04:16.351Z,100.00
2022-10-17T07:06:44.074Z,100.00
2022-10-17T07:09:11.675Z,100.00
2022-10-17T07:11:40.352Z,100.00
2022-10-17T07:14:07.715Z,100.00
2022-10-17T07:16:35.442Z,100.00
2022-10-17T07:19:02.929Z,100.00
2022-10-17T07:21:35.252Z,100.00
2022-10-17T07:24:07.602Z,100.00
2022-10-17T07:26:35.452Z,100.00
2022-10-17T07:29:03.329Z,100.00
2022-10-17T07:31:30.773Z,100.00
2022-10-17T07:34:00.321Z,100.00
2022-10-17T07:36:27.775Z,100.00
2022-10-17T07:38:55.282Z,100.00
2022-10-17T07:41:22.750Z,100.00
2022-10-17T07:43:50.336Z,100.00
2022-10-17T07:46:17.821Z,100.00
2022-10-17T07:48:45.532Z,100.00
2022-10-17T07:51:13.261Z,100.00
2022-10-17T07:53:42.747Z,100.00
2022-10-17T07:56:14.104Z,100.00
2022-10-17T07:58:41.719Z,100.00
2022-10-17T08:01:15.638Z,100.00
2022-10-17T08:03:44.721Z,100.00
2022-10-17T08:06:12.667Z,100.00
2022-10-17T08:08:41.882Z,100.00
2022-10-17T08:11:16.232Z,100.00
2022-10-17T08:13:43.886Z,100.00
2022-10-17T08:16:12.914Z,100.00
2022-10-17T08:18:41.593Z,100.00
2022-10-17T08:21:24.267Z,99.77
2022-10-17T08:23:51.805Z,98.84
2022-10-17T08:26:20.250Z,99.03
2022-10-17T08:28:48.359Z,98.05
2022-10-17T08:31:20.619Z,97.98
2022-10-17T08:33:50.005Z,96.67
2022-10-17T08:36:19.775Z,97.00
2022-10-17T08:38:51.810Z,96.49
2022-10-17T08:41:45.229Z,96.68
2022-10-17T08:44:34.546Z,95.80
2022-10-17T08:47:04.451Z,95.33
2022-10-17T08:49:31.894Z,94.70
2022-10-17T08:52:04.778Z,94.37
2022-10-17T08:54:42.104Z,94.94
2022-10-17T08:57:17.262Z,94.05
2022-10-17T08:59:46.310Z,93.83
2022-10-17T09:02:29.308Z,93.08
2022-10-17T09:09:04.081Z,91.95
2022-10-17T09:11:44.274Z,91.18
2022-10-17T09:14:37.076Z,90.27
2022-10-17T09:17:29.089Z,90.76
2022-10-17T09:20:20.887Z,90.77
2022-10-17T09:22:59.049Z,89.64
2022-10-17T09:25:27.477Z,88.81
2022-10-17T09:28:10.927Z,88.32
2022-10-17T09:30:45.196Z,87.53
2022-10-17T09:33:28.767Z,86.84
2022-10-17T09:36:08.892Z,86.28
2022-10-17T09:38:42.625Z,85.98
2022-10-17T09:41:43.125Z,85.11
2022-10-17T09:44:17.656Z,83.59
2022-10-17T09:47:34.119Z,82.99
2022-10-17T09:50:03.023Z,82.73
2022-10-17T09:52:48.141Z,81.72
2022-10-17T09:55:37.706Z,81.45
2022-10-17T09:58:07.017Z,80.65
2022-10-17T10:00:41.250Z,79.63
2022-10-17T10:03:29.199Z,79.63
2022-10-17T10:06:05.700Z,78.89
2022-10-17T10:08:36.875Z,78.48
2022-10-17T10:11:13.480Z,78.34
2022-10-17T10:13:41.691Z,76.68
2022-10-17T10:16:15.527Z,74.79
2022-10-17T10:18:47.482Z,74.87
2022-10-17T10:21:20.319Z,74.45
2022-10-17T10:24:14.728Z,72.47
2022-10-17T10:26:48.095Z,71.01
2022-10-17T10:29:21.763Z,71.18
2022-10-17T10:31:51.652Z,71.28
2022-10-17T10:34:26.948Z,71.20
2022-10-17T10:37:06.894Z,70.75
2022-10-17T10:39:36.627Z,71.13
2022-10-17T10:42:06.444Z,70.70
2022-10-17T10:44:34.050Z,69.31
2022-10-17T10:47:24.285Z,68.88
2022-10-17T10:49:53.698Z,68.77
2022-10-17T10:52:32.326Z,66.81
2022-10-17T10:55:05.344Z,66.23
2022-10-17T10:57:35.288Z,65.20
2022-10-17T11:00:15.422Z,64.76
2022-10-17T11:02:52.908Z,64.65
2022-10-17T11:05:26.861Z,63.35
2022-10-17T11:08:00.411Z,63.92
2022-10-17T11:11:00.214Z,62.10
2022-10-17T11:13:32.103Z,61.26
2022-10-17T11:16:04.897Z,60.27
2022-10-17T11:18:44.931Z,60.21
2022-10-17T11:21:24.133Z,58.92
2022-10-17T11:24:09.249Z,57.51
2022-10-17T11:26:46.709Z,56.72
2022-10-17T11:29:13.883Z,56.57
2022-10-17T11:31:52.828Z,55.76
2022-10-17T11:34:25.147Z,54.90
2022-10-17T11:36:56.958Z,55.49
2022-10-17T11:39:32.556Z,55.03
2022-10-17T11:42:07.232Z,54.50
2022-10-17T11:44:39.362Z,53.16
2022-10-17T11:47:17.716Z,52.53
2022-10-17T11:49:50.870Z,50.60
2022-10-17T11:52:55.378Z,53.37
2022-10-17T11:55:26.407Z,51.74
2022-10-17T11:58:18.216Z,51.28
2022-10-17T12:01:08.431Z,50.37
2022-10-17T12:04:01.720Z,50.98
2022-10-17T12:06:57.354Z,50.18
2022-10-17T12:09:27.315Z,49.21
2022-10-17T12:12:02.720Z,49.21
2022-10-17T12:14:40.420Z,46.78
2022-10-17T12:17:28.378Z,45.36
2022-10-17T12:20:21.503Z,45.60
2022-10-17T12:23:17.857Z,43.81
2022-10-17T12:26:03.423Z,43.50
2022-10-17T12:28:37.725Z,39.77
2022-10-17T12:31:23.012Z,39.76
2022-10-17T12:33:55.198Z,39.41
2022-10-17T12:36:22.208Z,39.35
2022-10-17T12:39:13.402Z,37.97
2022-10-17T12:41:40.619Z,36.94
2022-10-17T12:44:13.388Z,37.06
2022-10-17T12:47:00.425Z,34.34
2022-10-17T12:49:46.108Z,36.22
2022-10-17T12:52:23.564Z,37.03
2022-10-17T12:55:26.522Z,38.25
2022-10-17T12:57:57.059Z,38.65
2022-10-17T13:00:28.553Z,36.33
2022-10-17T13:03:03.671Z,38.33
2022-10-17T13:05:34.069Z,37.52
2022-10-17T13:08:04.357Z,38.69
2022-10-17T13:10:36.181Z,38.31
2022-10-17T13:13:15.887Z,39.24
2022-10-17T13:15:50.042Z,38.00
2022-10-17T13:18:22.828Z,40.05
2022-10-17T13:21:06.079Z,41.03
2022-10-17T13:23:37.656Z,41.13
2022-10-17T13:26:10.245Z,40.02
2022-10-17T13:28:39.492Z,41.71
2022-10-17T13:31:07.756Z,41.73
2022-10-17T13:33:40.568Z,42.29
2022-10-17T13:36:15.872Z,41.51
2022-10-17T13:38:43.234Z,41.98
2022-10-17T13:44:02.546Z,41.52
2022-10-17T13:46:37.915Z,40.26
2022-10-17T13:49:23.255Z,40.90
2022-10-17T13:51:54.200Z,39.33
2022-10-17T13:54:36.379Z,38.80
2022-10-17T13:57:04.753Z,39.10
2022-10-17T13:59:39.611Z,39.21
2022-10-17T14:02:14.183Z,39.43
2022-10-17T14:05:11.667Z,39.60
2022-10-17T14:08:05.532Z,38.79
2022-10-17T14:10:27.588Z,40.37
2022-10-17T14:12:55.202Z,40.09
2022-10-17T14:15:25.876Z,40.67
2022-10-17T14:18:06.673Z,41.38
2022-10-17T14:23:38.940Z,40.86
2022-10-17T14:26:21.494Z,41.17
2022-10-17T14:29:04.125Z,41.91
2022-10-17T14:31:35.321Z,42.38
2022-10-17T14:34:04.746Z,41.99
2022-10-17T14:36:44.082Z,42.55
2022-10-17T14:39:20.193Z,43.14
2022-10-17T14:41:47.959Z,42.80
2022-10-17T14:44:35.569Z,44.07
2022-10-17T14:47:30.329Z,44.24
2022-10-17T14:50:02.186Z,44.69
2022-10-17T14:52:31.271Z,44.68
2022-10-17T14:55:00.328Z,44.84
2022-10-17T14:57:33.183Z,45.29
2022-10-17T15:00:00.299Z,45.66
2022-10-17T15:02:29.620Z,46.86
2022-10-17T15:04:57.243Z,46.84
2022-10-17T15:07:24.376Z,47.80
2022-10-17T15:09:52.808Z,47.93
2022-10-17T15:12:25.294Z,48.57
2022-10-17T15:14:53.195Z,48.72
2022-10-17T15:17:31.283Z,49.73
2022-10-17T15:19:59.021Z,49.56
2022-10-17T15:22:26.505Z,50.29
2022-10-17T15:24:53.721Z,50.41
2022-10-17T15:27:22.972Z,50.29
2022-10-17T15:29:50.527Z,50.70
2022-10-17T15:32:17.715Z,51.01
2022-10-17T15:34:44.828Z,50.59
2022-10-17T15:37:17.948Z,51.15
2022-10-17T15:39:46.768Z,51.72
2022-10-17T15:42:13.902Z,51.62
2022-10-17T15:44:44.065Z,51.95
2022-10-17T15:47:22.563Z,52.34
2022-10-17T15:49:49.851Z,53.04
2022-10-17T15:52:17.090Z,53.17
2022-10-17T15:54:44.219Z,52.97
2022-10-17T15:57:18.427Z,53.45
2022-10-17T15:59:47.099Z,53.61
2022-10-17T16:02:15.332Z,54.04
2022-10-17T16:04:42.927Z,54.05
2022-10-17T16:07:10.409Z,54.64
2022-10-17T16:09:37.570Z,54.49
2022-10-17T16:12:06.416Z,54.32
2022-10-17T16:14:34.293Z,54.41
2022-10-17T16:17:01.628Z,54.90
2022-10-17T16:19:30.154Z,55.30
2022-10-17T16:22:00.773Z,55.59
2022-10-17T16:24:30.836Z,55.82
2022-10-17T16:26:57.973Z,55.96
2022-10-17T16:29:25.110Z,56.18
2022-10-17T16:31:52.180Z,55.99
2022-10-17T16:34:19.399Z,56.48
2022-10-17T16:36:46.496Z,56.47
2022-10-17T16:39:13.652Z,56.89
2022-10-17T16:41:41.030Z,57.02
2022-10-17T16:44:10.349Z,56.73
2022-10-17T16:46:37.980Z,56.45
2022-10-17T16:49:06.256Z,56.28
2022-10-17T16:51:35.715Z,56.88
2022-10-17T16:54:04.458Z,57.03
2022-10-17T16:56:32.838Z,56.88
2022-10-17T16:59:00.834Z,57.22
2022-10-17T17:01:31.465Z,57.48
2022-10-17T17:03:58.860Z,57.60
2022-10-17T17:06:28.447Z,57.62
2022-10-17T17:08:56.259Z,57.56
2022-10-17T17:11:25.503Z,57.92
2022-10-17T17:13:55.313Z,58.45
2022-10-17T17:16:23.845Z,58.56
2022-10-17T17:18:56.240Z,58.87
2022-10-17T17:21:23.773Z,58.55
2022-10-17T17:23:51.698Z,58.59
2022-10-17T17:26:20.532Z,58.50
2022-10-17T17:28:48.022Z,58.60
2022-10-17T17:31:17.897Z,58.59
2022-10-17T17:33:46.691Z,58.56
2022-10-17T17:36:19.924Z,58.64
2022-10-17T17:38:47.904Z,60.06
2022-10-17T17:41:17.595Z,59.98
2022-10-17T17:43:46.006Z,60.66
2022-10-17T17:46:14.517Z,60.58
2022-10-17T17:48:42.595Z,60.66
2022-10-17T17:51:11.201Z,60.92
2022-10-17T17:53:38.698Z,60.93
2022-10-17T17:56:10.770Z,60.52
2022-10-17T17:58:37.914Z,60.80
2022-10-17T18:01:15.192Z,60.61
2022-10-17T18:03:42.397Z,60.56
2022-10-17T18:06:09.568Z,60.32
2022-10-17T18:08:36.935Z,60.92
2022-10-17T18:11:04.388Z,60.82
2022-10-17T18:13:31.692Z,61.63
2022-10-17T18:16:00.576Z,61.72
2022-10-17T18:18:29.352Z,61.91
2022-10-17T18:20:56.775Z,61.96
2022-10-17T18:23:24.116Z,63.25
2022-10-17T18:25:55.694Z,62.56
2022-10-17T18:28:23.196Z,62.33
2022-10-17T18:30:50.700Z,62.61
2022-10-17T18:33:17.918Z,63.34
2022-10-17T18:35:45.103Z,63.13
2022-10-17T18:38:12.280Z,62.55
2022-10-17T18:40:39.459Z,62.29
2022-10-17T18:43:06.627Z,62.94
2022-10-17T18:45:33.777Z,62.95
2022-10-17T18:48:00.906Z,62.83
2022-10-17T18:50:28.103Z,62.62
2022-10-17T18:52:55.257Z,62.55
2022-10-17T18:55:22.376Z,62.97
2022-10-17T18:57:49.861Z,62.85
2022-10-17T19:00:17.485Z,63.60
2022-10-17T19:02:44.894Z,63.28
2022-10-17T19:05:12.004Z,62.97
2022-10-17T19:07:39.153Z,63.28
2022-10-17T19:10:06.562Z,63.05
2022-10-17T19:12:33.716Z,63.44
2022-10-17T19:15:00.942Z,63.26
2022-10-17T19:17:28.318Z,63.44
2022-10-17T19:19:55.876Z,63.99
2022-10-17T19:22:23.026Z,63.77
2022-10-17T19:24:50.123Z,63.95
2022-10-17T19:27:17.522Z,63.69
2022-10-17T19:29:44.657Z,64.23
2022-10-17T19:32:15.768Z,63.79
2022-10-17T19:34:45.295Z,64.37
2022-10-17T19:37:12.411Z,64.04
2022-10-17T19:39:39.572Z,63.98
2022-10-17T19:42:07.148Z,64.21
2022-10-17T19:44:34.888Z,64.86
2022-10-17T19:47:02.018Z,66.44
2022-10-17T19:49:29.260Z,65.64
2022-10-17T19:51:56.375Z,65.70
2022-10-17T19:54:23.485Z,66.53
2022-10-17T19:56:50.640Z,67.22
2022-10-17T19:59:18.143Z,66.58
2022-10-17T20:01:45.776Z,66.88
2022-10-17T20:04:13.336Z,66.51
2022-10-17T20:06:40.872Z,66.96
2022-10-17T20:09:11.140Z,66.94
2022-10-17T20:11:41.138Z,66.46
2022-10-17T20:14:08.436Z,67.12
2022-10-17T20:16:36.504Z,67.67
2022-10-17T20:19:06.673Z,67.91
2022-10-17T20:21:39.409Z,67.85
2022-10-17T20:24:10.921Z,67.46
2022-10-17T20:26:39.460Z,66.86
2022-10-17T20:29:11.606Z,66.98
2022-10-17T20:31:40.037Z,68.12
2022-10-17T20:34:07.124Z,68.53
2022-10-17T20:36:37.033Z,69.87
2022-10-17T20:39:05.256Z,68.69
2022-10-17T20:41:32.540Z,67.80
2022-10-17T20:43:59.661Z,67.77
2022-10-17T20:46:48.775Z,67.93
2022-10-17T20:49:18.788Z,68.38
2022-10-17T20:51:46.371Z,68.60
2022-10-17T20:54:13.484Z,69.11
2022-10-17T20:56:40.615Z,68.63
2022-10-17T20:59:12.630Z,68.88
2022-10-17T21:01:39.901Z,68.51
2022-10-17T21:04:33.145Z,68.52
2022-10-17T21:06:54.213Z,68.47
2022-10-17T21:09:21.703Z,68.83
2022-10-17T21:11:52.453Z,68.82
2022-10-17T21:14:19.788Z,68.64
2022-10-17T21:16:47.027Z,68.39
2022-10-17T21:19:14.896Z,68.29
2022-10-17T21:21:44.248Z,68.16
2022-10-17T21:24:17.366Z,68.56
2022-10-17T21:26:45.649Z,69.51
2022-10-17T21:29:13.435Z,69.88
2022-10-17T21:31:43.217Z,69.37
2022-10-17T21:34:18.451Z,69.14
2022-10-17T21:36:45.619Z,69.84
2022-10-17T21:39:14.315Z,69.43
2022-10-17T21:41:41.902Z,69.26
2022-10-17T21:44:14.519Z,69.74
2022-10-17T21:46:42.186Z,70.35
2022-10-17T21:49:12.030Z,70.17
2022-10-17T21:51:40.061Z,70.46
2022-10-17T21:54:07.890Z,70.45
2022-10-17T21:56:36.281Z,71.10
2022-10-17T21:59:04.489Z,70.68
2022-10-17T22:01:37.881Z,71.24
2022-10-17T22:04:07.292Z,71.36
2022-10-17T22:06:40.164Z,71.62
2022-10-17T22:09:20.308Z,71.10
2022-10-17T22:11:49.415Z,71.18
2022-10-17T22:14:18.839Z,72.61
2022-10-17T22:16:46.840Z,72.10
2022-10-17T22:19:16.479Z,72.33
2022-10-17T22:21:43.612Z,72.44
2022-10-17T22:24:12.671Z,72.58
2022-10-17T22:26:40.279Z,72.13
2022-10-17T22:29:08.723Z,72.46
2022-10-17T22:31:36.530Z,72.86
2022-10-17T22:34:05.514Z,72.45
2022-10-17T22:36:33.336Z,72.54
2022-10-17T22:39:00.588Z,72.59
2022-10-17T22:41:27.847Z,72.93
2022-10-17T22:43:55.013Z,72.81
2022-10-17T22:46:22.210Z,73.51
2022-10-17T22:48:49.422Z,72.68
2022-10-17T22:51:16.692Z,73.15
2022-10-17T22:53:43.868Z,73.15
2022-10-17T22:56:14.568Z,73.07
2022-10-17T22:58:42.021Z,73.00
2022-10-17T23:01:12.528Z,73.64
2022-10-17T23:03:39.735Z,73.34
2022-10-17T23:06:06.875Z,72.49
2022-10-17T23:08:34.047Z,72.84
2022-10-17T23:11:01.200Z,73.13
2022-10-17T23:13:28.413Z,72.78
2022-10-17T23:15:56.609Z,73.54
2022-10-17T23:18:25.066Z,73.17
2022-10-17T23:20:52.573Z,73.14
2022-10-17T23:23:19.839Z,72.75
2022-10-17T23:25:47.561Z,72.82
2022-10-17T23:28:14.729Z,72.76
2022-10-17T23:30:41.983Z,73.03
2022-10-17T23:33:10.734Z,72.65
2022-10-17T23:35:37.902Z,72.17
2022-10-17T23:38:05.038Z,73.27
2022-10-17T23:40:32.201Z,72.41
2022-10-17T23:42:59.456Z,72.11
2022-10-17T23:45:26.759Z,71.73
2022-10-17T23:47:53.851Z,71.93
2022-10-17T23:50:20.973Z,72.31
2022-10-17T23:52:48.146Z,72.47
2022-10-17T23:55:15.254Z,75.63
2022-10-17T23:57:42.377Z,74.25
